Time;durP1;ratioP1;P1;durP2;ratioP2;P2;SDS_P1;SDS_P2;PMS_P1;PMS_P2;Temp;Humidity;BMP_temperature;BMP_pressure;BME280_temperature;BME280_humidity;BME280_pressure;Samples;Min_cycle;Max_cycle;Signal;HPM_P1;HPM_P2
2023/08/27 00:01:06;;;;;;;21.60;7.70;;;;;;;27.25;54.92;98409.52;135678;1277;22556;-60
2023/08/27 00:04:31;;;;;;;;;;;;;;;27.22;54.90;98418.71;135748;1278;22664;-60
2023/08/27 00:07:37;;;;;;;24.80;7.50;;;;;;;27.40;54.87;98439.40;135720;1260;22570;-60
2023/08/27 00:10:40;;;;;;;23.10;9.40;;;;;;;27.59;54.59;98412.02;135692;1277;25610;-60
2023/08/27 00:13:42;;;;;;;23.80;9.00;;;;;;;27.70;54.39;98374.14;135686;1278;22523;-60
2023/08/27 00:16:45;;;;;;;23.00;8.50;;;;;;;27.81;54.22;98400.06;135718;1262;22568;-61
2023/08/27 00:19:50;;;;;;;23.30;8.70;;;;;;;27.99;54.15;98436.61;135723;1278;22533;-60
2023/08/27 00:22:56;;;;;;;27.10;13.50;;;;;;;27.85;54.72;98455.05;135679;1278;23888;-62
2023/08/27 00:25:58;;;;;;;25.70;10.40;;;;;;;27.87;54.73;98454.22;135698;1277;22526;-60
2023/08/27 00:29:01;;;;;;;24.90;8.60;;;;;;;27.89;54.59;98434.77;135687;1277;22545;-59
2023/08/27 00:32:03;;;;;;;22.10;8.40;;;;;;;27.86;54.60;98408.12;135692;1277;22537;-59
2023/08/27 00:35:09;;;;;;;24.80;7.90;;;;;;;27.96;54.43;98387.45;135680;1278;22546;-59
2023/08/27 00:38:14;;;;;;;27.10;13.20;;;;;;;28.13;54.35;98383.61;135699;1278;22535;-60
2023/08/27 00:47:55;;;;;;;28.80;13.30;;;;;;;28.25;54.53;98361.01;135706;1266;25496;-60
2023/08/27 00:50:57;;;;;;;25.90;11.90;;;;;;;28.30;54.34;98343.39;135712;1277;22528;-60
2023/08/27 00:54:00;;;;;;;23.80;11.10;;;;;;;28.34;54.36;98324.23;135687;1277;22530;-60
2023/08/27 00:57:03;;;;;;;25.10;11.50;;;;;;;28.26;54.06;98329.56;135689;1278;22527;-60
2023/08/27 01:00:09;;;;;;;26.30;13.20;;;;;;;27.95;54.80;98355.92;135709;1277;22537;-60
2023/08/27 01:03:11;;;;;;;26.60;13.50;;;;;;;27.66;55.64;98398.52;135707;1278;25239;-59
2023/08/27 01:06:13;;;;;;;26.80;12.50;;;;;;;27.36;56.71;98443.82;135704;1277;22574;-60
2023/08/27 01:09:16;;;;;;;25.10;10.10;;;;;;;27.34;56.80;98455.23;135723;1277;22556;-60
2023/08/27 01:12:18;;;;;;;20.40;7.50;;;;;;;27.23;57.64;98450.14;135571;1277;24361;-60
2023/08/27 01:15:21;;;;;;;20.10;8.10;;;;;;;27.25;57.23;98439.29;135695;1278;25346;-60
2023/08/27 01:18:24;;;;;;;23.20;8.40;;;;;;;27.36;57.09;98435.83;135697;1278;22551;-60
2023/08/27 01:21:27;;;;;;;22.80;8.40;;;;;;;27.46;56.66;98451.02;135727;1278;25494;-60
2023/08/27 01:24:29;;;;;;;23.30;8.00;;;;;;;27.41;57.58;98462.71;135720;1267;22510;-59
2023/08/27 01:27:31;;;;;;;21.90;8.00;;;;;;;27.48;57.71;98478.14;135694;1278;24492;-60
2023/08/27 01:30:34;;;;;;;22.60;7.70;;;;;;;27.54;57.72;98503.23;135710;1278;22531;-59
2023/08/27 01:33:36;;;;;;;24.50;7.50;;;;;;;27.48;58.78;98497.13;135734;1278;22530;-59
2023/08/27 01:36:39;;;;;;;18.70;7.10;;;;;;;27.07;59.44;98449.88;135703;1277;22660;-60
2023/08/27 01:39:42;;;;;;;18.60;6.00;;;;;;;27.05;59.18;98423.38;135703;1278;22523;-60
2023/08/27 01:42:44;;;;;;;18.90;5.90;;;;;;;27.09;58.89;98444.65;135700;1278;22537;-60
2023/08/27 01:45:47;;;;;;;19.00;6.20;;;;;;;26.98;60.50;98454.94;135691;1278;22561;-60
2023/08/27 01:48:49;;;;;;;19.70;6.50;;;;;;;27.07;59.20;98450.13;135715;1277;22521;-60
2023/08/27 01:51:51;;;;;;;18.70;6.10;;;;;;;27.14;59.11;98451.65;135685;1277;24233;-60
2023/08/27 01:54:54;;;;;;;18.60;6.20;;;;;;;27.05;60.00;98459.19;135630;1278;22537;-60
2023/08/27 01:57:56;;;;;;;19.90;6.50;;;;;;;27.02;59.59;98449.02;135659;1278;22536;-60
2023/08/27 02:00:59;;;;;;;18.00;6.00;;;;;;;27.14;58.88;98437.27;135657;1277;22538;-59
2023/08/27 02:04:02;;;;;;;19.20;5.90;;;;;;;27.28;58.71;98436.23;135712;1278;22544;-59
2023/08/27 02:07:04;;;;;;;18.70;6.10;;;;;;;27.75;57.40;98431.02;135682;1278;25385;-60
2023/08/27 02:10:07;;;;;;;19.70;6.70;;;;;;;28.06;56.73;98421.63;135719;1278;22535;-60
2023/08/27 02:13:09;;;;;;;18.30;6.20;;;;;;;28.25;56.02;98415.21;135678;1278;22533;-60
2023/08/27 02:16:11;;;;;;;18.10;6.20;;;;;;;27.81;57.51;98418.39;106261;1278;1005596;-60
2023/08/27 02:19:15;;;;;;;;;;;;;;;27.87;57.42;98400.15;67859;1278;1016403;-61
2023/08/27 02:22:17;;;;;;;20.80;6.70;;;;;;;28.01;56.93;98394.96;67797;1278;1016476;-60
2023/08/27 02:25:19;;;;;;;18.30;5.80;;;;;;;28.14;56.41;98388.68;67805;1278;1016386;-60
2023/08/27 02:28:22;;;;;;;19.20;6.30;;;;;;;28.20;56.00;98382.23;67834;1278;1016989;-60
2023/08/27 02:31:24;;;;;;;19.30;6.30;;;;;;;28.19;56.11;98375.59;67846;1278;1016162;-60
2023/08/27 02:34:27;;;;;;;18.30;6.20;;;;;;;28.32;55.48;98363.35;67875;1278;1016042;-60
2023/08/27 02:37:29;;;;;;;19.80;6.60;;;;;;;28.27;55.11;98353.27;67794;1277;1016391;-60
2023/08/27 02:40:32;;;;;;;21.10;7.70;;;;;;;28.39;54.43;98332.67;67804;1278;1016450;-59
2023/08/27 02:43:35;;;;;;;20.90;7.20;;;;;;;28.17;54.94;98310.87;67865;1278;1016916;-60
2023/08/27 02:46:37;;;;;;;19.40;6.50;;;;;;;27.99;55.07;98297.48;67818;1277;1018793;-60
2023/08/27 02:49:39;;;;;;;19.60;6.70;;;;;;;27.73;55.79;98283.32;67805;1277;1018153;-61
2023/08/27 02:52:42;;;;;;;20.40;7.20;;;;;;;27.85;55.58;98279.67;67807;1278;1019046;-61
2023/08/27 02:55:44;;;;;;;20.40;6.90;;;;;;;27.89;55.37;98276.52;67827;1277;1016711;-61
2023/08/27 02:58:47;;;;;;;19.50;6.30;;;;;;;27.72;55.81;98274.98;67841;1278;1016249;-61
2023/08/27 03:01:49;;;;;;;18.30;5.90;;;;;;;27.64;55.71;98273.67;67822;1277;1016390;-60
2023/08/27 03:04:51;;;;;;;17.20;6.10;;;;;;;27.67;55.59;98278.23;67828;1278;1016494;-60
2023/08/27 03:07:54;;;;;;;14.50;5.40;;;;;;;27.58;55.97;98278.31;67801;1277;1017070;-60
2023/08/27 03:10:56;;;;;;;16.10;5.10;;;;;;;27.60;55.95;98281.33;67862;1277;1016432;-61
2023/08/27 03:13:59;;;;;;;18.70;5.70;;;;;;;27.56;55.94;98284.27;67856;1277;1016429;-60
2023/08/27 03:17:01;;;;;;;18.50;6.00;;;;;;;27.64;55.71;98294.69;67837;1278;1016229;-60
2023/08/27 03:20:03;;;;;;;16.90;5.60;;;;;;;27.90;54.96;98297.70;67817;1278;1016135;-61
2023/08/27 03:23:06;;;;;;;17.50;6.00;;;;;;;28.06;54.62;98306.91;67803;1278;1016465;-60
2023/08/27 03:26:08;;;;;;;21.20;7.50;;;;;;;28.04;54.77;98315.75;67814;1278;1018884;-61
2023/08/27 03:29:11;;;;;;;20.50;7.70;;;;;;;28.11;54.70;98314.75;67868;1277;1016417;-60
2023/08/27 03:32:15;;;;;;;20.70;8.10;;;;;;;28.31;54.19;98312.92;67863;1277;1016432;-59
2023/08/27 03:35:17;;;;;;;21.50;8.70;;;;;;;28.38;53.92;98317.29;67843;1277;1016322;-60
2023/08/27 03:38:19;;;;;;;21.10;8.50;;;;;;;28.22;54.35;98325.23;67811;1278;1016492;-61
2023/08/27 03:41:22;;;;;;;22.40;8.40;;;;;;;28.24;54.32;98320.02;67815;1277;1016394;-61
2023/08/27 03:44:24;;;;;;;22.90;9.40;;;;;;;28.31;54.27;98321.01;67792;1278;1016434;-61
2023/08/27 03:47:27;;;;;;;23.40;9.50;;;;;;;28.28;54.47;98322.98;67855;1277;1016723;-60
2023/08/27 03:50:29;;;;;;;21.70;9.30;;;;;;;28.33;54.41;98326.63;67833;1278;1016473;-60
2023/08/27 03:53:32;;;;;;;22.10;9.80;;;;;;;28.45;54.16;98324.65;67803;1278;1016417;-60
2023/08/27 03:56:34;;;;;;;24.40;11.00;;;;;;;28.54;53.94;98317.11;67810;1278;1018794;-60
2023/08/27 03:59:36;;;;;;;27.90;11.30;;;;;;;28.59;53.81;98324.80;67838;1277;1016374;-60
2023/08/27 04:02:39;;;;;;;24.70;11.70;;;;;;;28.57;53.84;98326.38;67850;1277;1016338;-60
2023/08/27 04:05:41;;;;;;;25.00;11.70;;;;;;;28.55;54.10;98328.05;67852;1277;1016457;-60
2023/08/27 04:08:44;;;;;;;26.90;12.40;;;;;;;28.59;53.97;98326.20;67798;1278;1015961;-60
2023/08/27 04:11:47;;;;;;;29.90;12.60;;;;;;;28.59;53.80;98323.13;67840;1277;1015744;-60
2023/08/27 04:14:49;;;;;;;24.60;11.60;;;;;;;28.54;54.00;98323.11;67836;1278;1016490;-60
2023/08/27 04:17:51;;;;;;;26.20;12.80;;;;;;;28.48;54.10;98321.85;67855;1277;1016246;-60
2023/08/27 04:20:54;;;;;;;28.20;14.10;;;;;;;28.32;54.19;98317.34;67799;1278;1016163;-60
2023/08/27 04:23:56;;;;;;;28.90;13.50;;;;;;;28.36;54.17;98321.27;67806;1277;1016376;-60
2023/08/27 04:26:59;;;;;;;27.20;13.50;;;;;;;28.00;55.51;98325.48;67824;1278;1016408;-60
2023/08/27 04:30:01;;;;;;;27.10;14.00;;;;;;;28.15;55.41;98316.17;67870;1278;1016348;-59
2023/08/27 04:33:05;;;;;;;29.60;13.20;;;;;;;28.14;55.52;98322.23;67794;1277;1016553;-60
2023/08/27 04:36:07;;;;;;;27.80;14.00;;;;;;;28.29;55.29;98329.44;67836;1278;1016351;-60
2023/08/27 04:39:13;;;;;;;29.60;14.30;;;;;;;28.33;55.29;98327.21;67796;1278;1016721;-60
2023/08/27 04:42:15;;;;;;;28.80;14.00;;;;;;;28.41;55.26;98321.91;67861;1277;1016245;-60
2023/08/27 04:45:18;;;;;;;28.10;12.70;;;;;;;28.76;54.51;98330.59;67818;1278;1016413;-60
2023/08/27 04:48:20;;;;;;;26.10;12.10;;;;;;;28.90;54.10;98326.06;67812;1278;1016652;-59
2023/08/27 04:51:23;;;;;;;27.90;11.00;;;;;;;28.94;53.91;98319.33;67856;1278;1016087;-59
2023/08/27 04:54:26;;;;;;;24.50;10.80;;;;;;;28.90;53.90;98323.20;67839;1278;1016532;-60
2023/08/27 04:57:28;;;;;;;25.10;9.70;;;;;;;29.03;53.85;98318.73;67812;1277;1016312;-60
2023/08/27 05:00:31;;;;;;;24.00;9.40;;;;;;;29.24;53.02;98313.98;67803;1277;1016529;-60
2023/08/27 05:03:33;;;;;;;25.20;10.30;;;;;;;29.28;52.92;98310.10;67841;1277;1016472;-60
2023/08/27 05:06:35;;;;;;;25.60;10.30;;;;;;;29.27;52.68;98308.63;67852;1278;1016834;-60
2023/08/27 05:09:38;;;;;;;26.10;9.40;;;;;;;29.42;52.30;98295.46;67837;1278;1016375;-60
2023/08/27 05:12:40;;;;;;;24.70;9.60;;;;;;;29.50;51.83;98291.65;67790;1278;1016408;-60
2023/08/27 05:15:43;;;;;;;26.70;11.60;;;;;;;29.49;52.01;98297.45;67782;1278;1016355;-61
2023/08/27 05:18:45;;;;;;;25.40;11.40;;;;;;;29.42;51.93;98292.77;67856;1277;1016467;-61
2023/08/27 05:21:47;;;;;;;26.60;12.20;;;;;;;29.17;52.55;98291.70;67838;1277;1016078;-60
2023/08/27 05:24:50;;;;;;;25.90;12.00;;;;;;;29.21;52.58;98293.06;67867;1277;1015920;-61
2023/08/27 05:27:52;;;;;;;27.30;12.20;;;;;;;29.50;52.20;98294.57;67862;1278;1016064;-61
2023/08/27 05:30:54;;;;;;;28.80;12.80;;;;;;;29.58;51.63;98294.98;67803;1278;1016385;-61
2023/08/27 05:33:57;;;;;;;26.70;12.60;;;;;;;29.61;51.82;98291.92;67826;1278;1016916;-61
2023/08/27 05:37:00;;;;;;;30.50;15.00;;;;;;;29.36;52.54;98283.33;67873;1278;1016435;-62
2023/08/27 05:40:05;;;;;;;27.40;13.50;;;;;;;29.27;52.36;98270.77;67809;1277;1016379;-61
2023/08/27 05:43:07;;;;;;;28.10;13.60;;;;;;;29.26;52.42;98253.91;67828;1277;1016204;-61
2023/08/27 05:46:09;;;;;;;32.10;16.20;;;;;;;29.45;52.19;98260.33;67804;1278;1016446;-61
2023/08/27 05:49:12;;;;;;;30.40;14.20;;;;;;;29.30;52.42;98265.54;67876;1277;1016332;-59
2023/08/27 05:52:15;;;;;;;30.40;14.20;;;;;;;29.29;52.53;98265.46;67808;1277;1016436;-61
2023/08/27 05:55:18;;;;;;;32.30;15.80;;;;;;;29.39;52.38;98281.92;67819;1278;1016353;-61
2023/08/27 05:58:21;;;;;;;29.40;14.80;;;;;;;29.45;52.28;98297.88;67819;1277;1016151;-62
2023/08/27 06:01:23;;;;;;;29.20;15.60;;;;;;;29.33;52.63;98303.73;67804;1277;1016367;-59
2023/08/27 06:04:25;;;;;;;28.50;13.70;;;;;;;29.39;52.56;98297.63;67803;1277;1016179;-60
2023/08/27 06:07:28;;;;;;;30.50;14.80;;;;;;;29.66;52.23;98284.44;67766;1278;1016144;-60
2023/08/27 06:10:30;;;;;;;29.10;13.60;;;;;;;29.52;52.30;98276.99;67856;1277;1016479;-60
2023/08/27 06:13:32;;;;;;;30.30;15.00;;;;;;;29.34;52.60;98270.19;67850;1277;1016286;-59
2023/08/27 06:16:35;;;;;;;29.00;14.20;;;;;;;29.26;52.92;98273.65;67828;1277;1016387;-60
2023/08/27 06:19:37;;;;;;;27.80;13.70;;;;;;;29.50;52.97;98275.54;67795;1278;1016343;-60
2023/08/27 06:22:40;;;;;;;28.70;14.90;;;;;;;29.73;52.74;98276.73;67798;1277;1016477;-60
2023/08/27 06:25:42;;;;;;;28.70;14.30;;;;;;;29.93;52.23;98278.16;67877;1277;1018074;-59
2023/08/27 06:28:44;;;;;;;27.10;13.40;;;;;;;30.18;52.18;98289.27;67851;1277;1017174;-60
2023/08/27 06:31:47;;;;;;;29.80;14.80;;;;;;;30.42;52.02;98299.85;67829;1277;1016393;-60
2023/08/27 06:34:49;;;;;;;28.30;13.30;;;;;;;30.59;51.37;98309.22;67798;1277;1019633;-60
2023/08/27 06:37:52;;;;;;;27.10;14.00;;;;;;;30.74;51.24;98305.91;67832;1278;1016263;-60
2023/08/27 06:40:54;;;;;;;26.60;13.10;;;;;;;30.93;51.01;98293.43;67822;1277;1016273;-60
2023/08/27 06:43:56;;;;;;;29.50;13.80;;;;;;;30.97;50.83;98280.36;67868;1277;1018023;-59
2023/08/27 06:46:59;;;;;;;27.30;13.10;;;;;;;31.15;50.96;98283.84;67860;1277;1016102;-60
2023/08/27 06:50:04;;;;;;;26.40;12.20;;;;;;;31.42;50.25;98291.71;67819;1278;1016423;-60
2023/08/27 06:53:06;;;;;;;25.90;13.30;;;;;;;31.46;49.83;98294.29;67833;1277;1016457;-60
2023/08/27 06:56:08;;;;;;;24.60;12.10;;;;;;;31.53;49.70;98291.11;67850;1278;1016463;-60
2023/08/27 06:59:11;;;;;;;25.60;11.80;;;;;;;31.50;49.69;98285.37;67863;1277;1016571;-60
2023/08/27 07:02:15;;;;;;;26.40;12.20;;;;;;;31.57;49.92;98283.39;67797;1277;1016183;-60
2023/08/27 07:05:18;;;;;;;24.50;11.70;;;;;;;31.72;49.58;98281.06;67831;1277;1016301;-60
2023/08/27 07:08:20;;;;;;;25.40;12.00;;;;;;;31.85;49.15;98267.78;68197;1277;1016409;-60
2023/08/27 07:11:23;;;;;;;26.90;12.60;;;;;;;31.86;49.41;98270.52;67998;1277;1016118;-60
2023/08/27 07:14:25;;;;;;;24.80;10.50;;;;;;;31.97;48.75;98262.61;68020;1277;1016309;-60
2023/08/27 07:17:27;;;;;;;24.10;10.50;;;;;;;31.96;48.07;98260.05;67796;1277;1016646;-59
2023/08/27 07:20:30;;;;;;;23.80;10.90;;;;;;;32.04;48.44;98265.01;67795;1277;1016528;-60
2023/08/27 07:23:32;;;;;;;21.50;9.60;;;;;;;32.26;48.38;98263.69;67796;1277;1016502;-60
2023/08/27 07:26:34;;;;;;;22.90;9.70;;;;;;;32.39;48.22;98256.60;68256;1277;1015933;-61
2023/08/27 07:29:37;;;;;;;23.20;9.20;;;;;;;32.66;47.76;98265.71;68138;1278;1016139;-60
2023/08/27 07:32:39;;;;;;;21.30;8.70;;;;;;;32.80;47.69;98274.23;67842;1277;1016609;-60
2023/08/27 07:35:42;;;;;;;22.20;8.70;;;;;;;32.97;47.40;98267.20;67812;1278;1016288;-60
2023/08/27 07:38:44;;;;;;;21.80;8.50;;;;;;;32.95;47.42;98266.21;67798;1278;1016934;-60
2023/08/27 07:41:46;;;;;;;21.50;7.50;;;;;;;33.01;47.43;98269.26;67816;1277;1016441;-58
2023/08/27 07:44:49;;;;;;;19.60;7.50;;;;;;;33.06;47.16;98286.01;67854;1278;1015957;-60
2023/08/27 07:47:52;;;;;;;19.90;6.90;;;;;;;33.09;47.03;98280.65;67839;1277;1016507;-60
2023/08/27 07:50:54;;;;;;;21.40;7.40;;;;;;;33.17;47.06;98281.73;67826;1278;1016377;-60
2023/08/27 07:53:57;;;;;;;18.80;6.20;;;;;;;33.17;46.88;98285.05;67817;1277;1016525;-59
2023/08/27 07:56:59;;;;;;;20.20;7.10;;;;;;;33.64;46.02;98290.94;67819;1277;1016464;-60
2023/08/27 08:00:02;;;;;;;20.20;6.80;;;;;;;33.60;45.90;98294.82;67807;1277;1016347;-60
2023/08/27 08:03:04;;;;;;;19.00;6.80;;;;;;;33.68;46.01;98288.60;67835;1277;1016407;-59
2023/08/27 08:06:06;;;;;;;18.20;6.40;;;;;;;33.82;45.45;98286.89;67813;1277;1016377;-60
2023/08/27 08:09:09;;;;;;;17.40;6.20;;;;;;;33.92;45.54;98292.20;67851;1277;1016526;-60
2023/08/27 08:12:12;;;;;;;20.60;7.20;;;;;;;33.87;45.56;98284.11;67818;1277;1016322;-60
2023/08/27 08:15:15;;;;;;;18.90;7.20;;;;;;;33.95;45.03;98282.33;67727;1277;1016522;-60
2023/08/27 08:18:17;;;;;;;18.10;6.90;;;;;;;33.86;45.11;98271.27;67740;1277;1016186;-60
2023/08/27 08:21:20;;;;;;;20.20;7.00;;;;;;;33.94;45.33;98270.09;67764;1277;1016406;-59
2023/08/27 08:24:23;;;;;;;20.40;7.00;;;;;;;34.12;44.59;98269.90;68512;1277;1015910;-60
2023/08/27 08:27:25;;;;;;;21.90;7.60;;;;;;;33.98;44.40;98270.87;68540;1278;1015620;-60
2023/08/27 08:30:28;;;;;;;19.90;7.20;;;;;;;34.04;44.53;98272.28;68405;1277;1015602;-60
2023/08/27 08:33:30;;;;;;;18.20;7.30;;;;;;;34.14;44.48;98276.77;67825;1277;1016317;-60
2023/08/27 08:36:33;;;;;;;21.00;7.60;;;;;;;34.21;43.95;98290.73;67814;1277;1016426;-60
2023/08/27 08:39:35;;;;;;;19.00;7.10;;;;;;;34.20;43.63;98287.86;67797;1277;1015990;-57
2023/08/27 08:42:37;;;;;;;21.40;7.30;;;;;;;34.18;43.47;98279.02;67845;1277;1016484;-59
2023/08/27 08:45:40;;;;;;;19.80;7.20;;;;;;;34.16;43.95;98280.80;67857;1278;1016473;-60
2023/08/27 08:48:42;;;;;;;19.50;7.20;;;;;;;34.23;43.63;98278.52;67855;1277;1016640;-59
2023/08/27 08:51:45;;;;;;;19.80;6.80;;;;;;;34.14;43.72;98274.42;67800;1277;1016555;-60
2023/08/27 08:54:48;;;;;;;17.00;7.00;;;;;;;34.16;43.94;98270.20;67794;1278;1017170;-59
2023/08/27 08:57:51;;;;;;;21.00;7.60;;;;;;;34.33;43.53;98264.84;67826;1278;1016708;-60
2023/08/27 09:00:53;;;;;;;20.50;7.60;;;;;;;34.47;43.17;98256.21;67808;1278;1016436;-59
2023/08/27 09:03:56;;;;;;;19.80;7.50;;;;;;;34.50;43.07;98256.17;67865;1277;1016883;-60
2023/08/27 09:06:58;;;;;;;20.50;7.50;;;;;;;34.85;42.94;98264.64;67851;1277;1016914;-59
2023/08/27 09:10:00;;;;;;;20.80;7.90;;;;;;;35.09;42.67;98259.06;67853;1277;1018543;-59
2023/08/27 09:13:04;;;;;;;22.00;7.60;;;;;;;35.29;42.33;98251.50;67788;1278;1016386;-60
2023/08/27 09:16:07;;;;;;;19.50;7.80;;;;;;;35.69;42.06;98242.09;67794;1277;1018512;-59
2023/08/27 09:19:10;;;;;;;19.30;7.90;;;;;;;36.16;41.13;98234.71;67776;1277;1017172;-59
2023/08/27 09:22:12;;;;;;;20.90;8.00;;;;;;;36.06;40.95;98235.77;67830;1277;1016536;-59
2023/08/27 09:25:14;;;;;;;22.60;8.20;;;;;;;36.04;40.97;98235.38;67843;1277;1016342;-60
2023/08/27 09:28:17;;;;;;;20.70;8.00;;;;;;;36.09;40.28;98240.66;67833;1277;1018020;-59
2023/08/27 09:31:19;;;;;;;23.70;7.90;;;;;;;36.15;40.56;98242.02;67819;1278;1016291;-60
2023/08/27 09:34:22;;;;;;;18.60;7.40;;;;;;;35.89;40.47;98236.92;67798;1277;1017123;-60
2023/08/27 09:37:24;;;;;;;20.30;8.30;;;;;;;35.76;40.76;98233.86;67880;1278;1016382;-59
2023/08/27 09:40:26;;;;;;;19.80;7.80;;;;;;;35.84;41.06;98235.12;67852;1277;1016720;-60
2023/08/27 09:43:29;;;;;;;21.30;8.40;;;;;;;35.90;40.70;98234.20;67839;1277;1015930;-60
2023/08/27 09:46:31;;;;;;;22.70;7.80;;;;;;;35.72;40.34;98231.89;67823;1262;1019268;-60
2023/08/27 09:49:33;;;;;;;21.70;8.50;;;;;;;35.59;40.08;98228.72;67803;1254;1015791;-60
2023/08/27 09:52:36;;;;;;;22.30;9.20;;;;;;;35.57;40.86;98222.88;67848;1277;1016470;-60
2023/08/27 09:55:38;;;;;;;21.00;9.10;;;;;;;35.77;40.74;98220.31;67858;1277;1016245;-60
2023/08/27 09:58:41;;;;;;;20.80;8.70;;;;;;;36.19;40.15;98215.65;67851;1277;1016410;-60
2023/08/27 10:01:43;;;;;;;22.00;8.70;;;;;;;36.41;39.48;98209.67;67816;1277;1016301;-60
2023/08/27 10:04:45;;;;;;;22.10;8.90;;;;;;;36.46;39.85;98209.17;67809;1277;1016683;-60
2023/08/27 10:07:48;;;;;;;19.30;7.80;;;;;;;36.64;39.19;98210.63;67874;1277;1016228;-60
2023/08/27 10:10:50;;;;;;;21.40;8.70;;;;;;;36.67;38.64;98210.40;67856;1278;1016481;-60
2023/08/27 10:13:53;;;;;;;20.20;8.70;;;;;;;36.77;38.46;98206.16;67799;1277;1016116;-60
2023/08/27 10:16:55;;;;;;;20.40;9.00;;;;;;;36.80;38.29;98210.15;67796;1278;1017773;-60
2023/08/27 10:19:58;;;;;;;22.50;9.40;;;;;;;36.30;38.45;98211.55;67821;1278;1016339;-60
2023/08/27 10:23:00;;;;;;;25.00;9.30;;;;;;;35.94;38.84;98215.41;67828;1278;1016736;-60
2023/08/27 10:26:02;;;;;;;24.20;9.20;;;;;;;35.99;38.98;98214.70;67868;1277;1016831;-60
2023/08/27 10:29:05;;;;;;;22.60;8.70;;;;;;;36.24;38.54;98213.90;67857;1277;1016316;-60
2023/08/27 10:32:07;;;;;;;20.30;8.90;;;;;;;36.27;38.95;98210.95;67813;1278;1016406;-60
2023/08/27 10:35:10;;;;;;;22.10;9.00;;;;;;;36.51;38.91;98201.89;67809;1277;1017115;-60
2023/08/27 10:38:13;;;;;;;20.50;8.40;;;;;;;36.88;37.88;98197.77;67841;1277;1016078;-60
2023/08/27 10:41:15;;;;;;;19.80;8.10;;;;;;;36.99;38.08;98197.16;67831;1277;1016379;-60
2023/08/27 10:44:18;;;;;;;21.30;8.50;;;;;;;37.44;37.59;98199.63;67836;1277;1016219;-60
2023/08/27 10:47:20;;;;;;;21.50;8.50;;;;;;;37.52;36.97;98200.50;67799;1277;1016246;-60
2023/08/27 10:50:23;;;;;;;22.00;9.00;;;;;;;37.53;36.89;98205.13;67851;1277;1016377;-60
2023/08/27 10:53:26;;;;;;;22.00;8.80;;;;;;;37.34;37.03;98197.23;67807;1277;1016270;-60
2023/08/27 10:56:28;;;;;;;23.70;9.00;;;;;;;36.74;37.51;98191.04;67810;1277;1017524;-59
2023/08/27 10:59:30;;;;;;;21.30;8.30;;;;;;;36.58;37.59;98177.77;67822;1277;1016200;-60
2023/08/27 11:02:33;;;;;;;21.10;8.90;;;;;;;36.46;37.93;98179.59;67836;1277;1015950;-59
2023/08/27 11:05:35;;;;;;;23.20;8.20;;;;;;;36.36;37.84;98186.65;67859;1277;1016282;-60
2023/08/27 11:08:40;;;;;;;20.90;8.60;;;;;;;36.20;37.84;98196.39;67821;1277;1017159;-59
2023/08/27 11:11:42;;;;;;;21.20;8.80;;;;;;;36.30;38.15;98196.27;67800;1277;1016469;-59
2023/08/27 11:14:45;;;;;;;22.80;8.90;;;;;;;36.53;37.70;98197.19;67841;1277;1016432;-60
2023/08/27 11:17:47;;;;;;;21.90;8.70;;;;;;;36.34;37.81;98199.42;67822;1277;1016491;-60
2023/08/27 11:20:51;;;;;;;21.00;8.70;;;;;;;36.15;38.16;98196.67;67811;1277;1016149;-60
2023/08/27 11:23:54;;;;;;;21.20;8.50;;;;;;;35.70;38.26;98188.20;67785;1277;1016445;-60
2023/08/27 11:26:56;;;;;;;20.50;8.50;;;;;;;35.74;38.71;98183.77;67821;1277;1019694;-60
2023/08/27 11:29:59;;;;;;;21.90;8.60;;;;;;;35.89;38.87;98177.35;67841;1277;1016381;-60
2023/08/27 11:33:02;;;;;;;21.30;8.50;;;;;;;36.01;38.72;98166.14;67861;1277;1016403;-59
2023/08/27 11:36:05;;;;;;;21.10;8.40;;;;;;;36.23;38.57;98167.30;67822;1277;1016945;-59
2023/08/27 11:39:08;;;;;;;20.40;8.20;;;;;;;36.87;37.97;98173.13;67862;1277;1016467;-60
2023/08/27 11:42:11;;;;;;;19.80;8.10;;;;;;;36.95;37.57;98171.98;67814;1277;1016393;-60
2023/08/27 11:45:15;;;;;;;20.80;8.40;;;;;;;36.83;37.55;98165.39;67892;1277;1016259;-60
2023/08/27 11:48:17;;;;;;;19.80;7.90;;;;;;;37.06;37.40;98158.14;67862;1277;1016503;-60
2023/08/27 11:51:20;;;;;;;20.50;7.70;;;;;;;37.31;37.20;98161.92;67889;1278;1016866;-60
2023/08/27 11:54:24;;;;;;;21.20;7.50;;;;;;;37.07;37.48;98166.52;67809;1277;1018258;-60
2023/08/27 11:57:26;;;;;;;19.50;7.90;;;;;;;37.04;37.93;98172.81;67824;1277;1018583;-60
2023/08/27 12:00:30;;;;;;;19.90;7.50;;;;;;;36.88;37.85;98167.91;67871;1278;1016423;-60
2023/08/27 12:03:33;;;;;;;19.90;7.40;;;;;;;36.60;37.73;98166.41;67870;1277;1015817;-60
2023/08/27 12:06:35;;;;;;;21.60;8.20;;;;;;;36.45;37.88;98167.23;67863;1278;1016490;-60
2023/08/27 12:09:38;;;;;;;20.20;8.00;;;;;;;36.12;38.77;98164.09;67813;1277;1015984;-60
2023/08/27 12:12:40;;;;;;;19.70;7.40;;;;;;;36.36;38.84;98153.05;67837;1277;1016638;-60
2023/08/27 12:15:43;;;;;;;21.10;7.70;;;;;;;36.58;37.89;98149.65;67833;1277;1016377;-60
2023/08/27 12:18:45;;;;;;;20.50;8.20;;;;;;;36.59;38.27;98144.56;67877;1277;1016421;-59
2023/08/27 12:25:07;;;;;;;20.00;8.10;;;;;;;36.47;39.30;98139.65;67832;1277;1016485;-60
2023/08/27 12:28:10;;;;;;;17.80;6.70;;;;;;;36.43;39.05;98133.23;67810;1277;1017540;-60
2023/08/27 12:31:12;;;;;;;16.70;6.00;;;;;;;36.50;38.66;98133.90;67835;1277;1016171;-60
2023/08/27 12:34:15;;;;;;;19.60;7.10;;;;;;;36.95;38.36;98136.09;67827;1277;1016442;-60
2023/08/27 12:37:18;;;;;;;18.80;6.70;;;;;;;37.38;38.19;98132.66;67876;1277;1016469;-60
2023/08/27 12:40:20;;;;;;;15.40;5.60;;;;;;;37.57;37.79;98135.52;67811;1277;1016445;-60
2023/08/27 12:43:23;;;;;;;17.10;6.10;;;;;;;38.09;38.32;98123.52;67795;1277;1016628;-60
2023/08/27 12:46:25;;;;;;;17.90;7.00;;;;;;;38.58;37.52;98119.60;67852;1277;1016478;-60
2023/08/27 12:49:28;;;;;;;16.80;6.10;;;;;;;38.51;36.93;98113.84;67807;1277;1017075;-60
2023/08/27 12:52:30;;;;;;;16.90;5.80;;;;;;;38.38;37.36;98114.23;67863;1277;1016220;-60
2023/08/27 12:55:32;;;;;;;18.30;6.60;;;;;;;38.05;36.42;98114.92;67881;1277;1016620;-60
2023/08/27 12:58:35;;;;;;;19.50;6.50;;;;;;;37.44;37.19;98114.80;67841;1277;1016162;-60
2023/08/27 13:01:39;;;;;;;18.10;6.20;;;;;;;37.66;37.18;98111.89;67824;1277;1016220;-61
2023/08/27 13:04:41;;;;;;;16.70;5.80;;;;;;;38.22;36.38;98109.98;67838;1277;1016264;-60
2023/08/27 13:07:44;;;;;;;20.30;7.40;;;;;;;38.23;36.57;98111.11;67882;1277;1016538;-60
2023/08/27 13:10:46;;;;;;;18.90;7.30;;;;;;;38.12;36.92;98107.45;67873;1278;1016246;-60
2023/08/27 13:13:48;;;;;;;16.50;6.20;;;;;;;38.23;36.97;98104.28;67871;1277;1016027;-60
2023/08/27 13:16:51;;;;;;;17.20;5.90;;;;;;;38.42;36.54;98098.67;67827;1277;1016839;-60
2023/08/27 13:19:53;;;;;;;17.20;6.00;;;;;;;38.46;36.03;98100.38;67832;1277;1016542;-60
2023/08/27 13:22:56;;;;;;;16.60;6.40;;;;;;;38.51;36.26;98096.31;67880;1278;1016874;-60
2023/08/27 13:25:59;;;;;;;15.40;5.40;;;;;;;38.58;36.23;98095.07;67823;1278;1016448;-60
2023/08/27 13:29:01;;;;;;;16.70;5.70;;;;;;;39.10;35.78;98090.15;67824;1254;1016298;-60
2023/08/27 13:32:04;;;;;;;14.30;5.40;;;;;;;39.13;35.57;98090.89;67829;1277;1016407;-60
2023/08/27 13:35:06;;;;;;;14.40;5.20;;;;;;;38.92;35.58;98099.41;67878;1278;1016189;-60
2023/08/27 13:38:08;;;;;;;15.50;5.70;;;;;;;38.91;35.66;98107.05;67872;1277;1016890;-60
2023/08/27 13:41:11;;;;;;;16.40;6.10;;;;;;;38.04;36.70;98102.90;67848;1278;1016410;-60
2023/08/27 13:44:13;;;;;;;18.90;6.60;;;;;;;38.38;36.63;98102.01;67794;1278;1017356;-60
2023/08/27 13:47:16;;;;;;;18.40;6.00;;;;;;;38.41;36.01;98104.33;67803;1277;1015941;-60
2023/08/27 13:50:19;;;;;;;15.20;5.40;;;;;;;38.37;36.19;98101.98;67776;1278;1016097;-60
2023/08/27 13:53:22;;;;;;;16.40;5.90;;;;;;;38.70;35.82;98097.22;67794;1277;1016340;-60
2023/08/27 13:56:24;;;;;;;17.30;5.70;;;;;;;39.02;35.69;98096.81;67862;1278;1018333;-60
2023/08/27 13:59:29;;;;;;;13.40;5.10;;;;;;;39.49;34.78;98097.27;67887;1277;1016925;-60